AFR7406 LFKJ-LFML
Flight info
| Callsign | AFR7406 |
|---|---|
| Flight time | 0h 43m |
| Altitude | 24000 |
| Route | TINOT |
| Aircraft | A320/M-SDE3FGHIRWY/LB1 |
Departure
| Time | 2026-04-28 18:52 |
|---|---|
| Airport | Ajaccio Napoléon Bonaparte airport (LFKJ) |
Arrival
| Time | 2026-04-28 19:35 |
|---|---|
| Airport | Marseille Provence Airport (LFML) |
| Time | Latitude | Longitude | Altitude | Speed | Heading |
|---|---|---|---|---|---|
| 2026-04-28 18:20 | 41.92242 | 8.79754 | 26 ft | 0 kts | 344° |
| 2026-04-28 18:44 | 41.92255 | 8.79765 | 31 ft | 0 kts | 78° |
| 2026-04-28 18:44 | 41.92287 | 8.79828 | 27 ft | 9 kts | 44° |
| 2026-04-28 18:44 | 41.92346 | 8.79887 | 32 ft | 11 kts | 29° |
| 2026-04-28 18:45 | 41.92410 | 8.79927 | 28 ft | 10 kts | 25° |
| 2026-04-28 18:45 | 41.92467 | 8.79963 | 27 ft | 8 kts | 25° |
| 2026-04-28 18:45 | 41.92516 | 8.79992 | 31 ft | 7 kts | 24° |
| 2026-04-28 18:45 | 41.92556 | 8.80017 | 30 ft | 6 kts | 25° |
| 2026-04-28 18:46 | 41.92588 | 8.80037 | 28 ft | 5 kts | 25° |
| 2026-04-28 18:46 | 41.92662 | 8.80083 | 26 ft | 20 kts | 25° |
| 2026-04-28 18:46 | 41.92811 | 8.80204 | 27 ft | 28 kts | 46° |
| 2026-04-28 18:46 | 41.92928 | 8.80369 | 30 ft | 16 kts | 42° |
| 2026-04-28 18:47 | 41.92961 | 8.80454 | 30 ft | 0 kts | 90° |
| 2026-04-28 18:50 | 41.92961 | 8.80458 | 31 ft | 4 kts | 90° |
| 2026-04-28 18:50 | 41.92944 | 8.80533 | 32 ft | 12 kts | 116° |
| 2026-04-28 18:51 | 41.92884 | 8.80552 | 31 ft | 0 kts | 203° |
| 2026-04-28 18:51 | 41.92855 | 8.80533 | 29 ft | 29 kts | 205° |
| 2026-04-28 18:51 | 41.92410 | 8.80257 | 22 ft | 107 kts | 206° |
| 2026-04-28 18:51 | 41.91546 | 8.79732 | 33 ft | 161 kts | 205° |
| 2026-04-28 18:52 | 41.90531 | 8.79044 | 673 ft | 161 kts | 207° |
| 2026-04-28 18:52 | 41.89540 | 8.78333 | 1401 ft | 163 kts | 211° |
| 2026-04-28 18:52 | 41.88595 | 8.77464 | 2076 ft | 167 kts | 218° |
| 2026-04-28 18:52 | 41.87647 | 8.76480 | 2552 ft | 181 kts | 215° |
| 2026-04-28 18:53 | 41.86554 | 8.75462 | 2888 ft | 203 kts | 213° |
| 2026-04-28 18:53 | 41.85293 | 8.74322 | 2998 ft | 238 kts | 212° |
| 2026-04-28 18:53 | 41.83833 | 8.73006 | 3011 ft | 261 kts | 212° |
| 2026-04-28 18:53 | 41.82316 | 8.71623 | 3015 ft | 265 kts | 212° |
| 2026-04-28 18:54 | 41.80801 | 8.70230 | 3019 ft | 263 kts | 212° |
| 2026-04-28 18:54 | 41.79306 | 8.68861 | 3155 ft | 267 kts | 212° |
| 2026-04-28 18:54 | 41.77739 | 8.67452 | 4202 ft | 265 kts | 212° |
| 2026-04-28 18:54 | 41.76211 | 8.66080 | 5343 ft | 263 kts | 212° |
| 2026-04-28 18:55 | 41.74709 | 8.64734 | 6389 ft | 263 kts | 212° |
| 2026-04-28 18:55 | 41.73682 | 8.63811 | 7029 ft | 264 kts | 214° |
| 2026-04-28 18:55 | 41.72120 | 8.61300 | 8182 ft | 274 kts | 248° |
| 2026-04-28 18:55 | 41.71842 | 8.58773 | 9068 ft | 281 kts | 274° |
| 2026-04-28 18:56 | 41.72471 | 8.56274 | 9973 ft | 288 kts | 297° |
| 2026-04-28 18:56 | 41.73480 | 8.53895 | 10505 ft | 305 kts | 297° |
| 2026-04-28 18:56 | 41.74576 | 8.51326 | 10793 ft | 329 kts | 298° |
| 2026-04-28 18:56 | 41.75746 | 8.48579 | 11159 ft | 346 kts | 298° |
| 2026-04-28 18:57 | 41.76945 | 8.45745 | 11833 ft | 353 kts | 297° |
| 2026-04-28 18:57 | 41.78157 | 8.42857 | 12572 ft | 357 kts | 297° |
| 2026-04-28 18:57 | 41.79384 | 8.39931 | 13325 ft | 362 kts | 298° |
| 2026-04-28 18:57 | 41.80626 | 8.36967 | 14040 ft | 366 kts | 298° |
| 2026-04-28 18:58 | 41.81877 | 8.33981 | 14717 ft | 369 kts | 297° |
| 2026-04-28 18:58 | 41.83124 | 8.31001 | 15380 ft | 372 kts | 297° |
| 2026-04-28 18:58 | 41.84228 | 8.27856 | 16027 ft | 374 kts | 290° |
| 2026-04-28 18:58 | 41.85232 | 8.24563 | 16687 ft | 378 kts | 290° |
| 2026-04-28 18:59 | 41.86218 | 8.21330 | 17331 ft | 381 kts | 290° |
| 2026-04-28 18:59 | 41.87223 | 8.18024 | 17949 ft | 384 kts | 290° |
| 2026-04-28 18:59 | 41.88237 | 8.14683 | 18535 ft | 388 kts | 290° |
| 2026-04-28 18:59 | 41.89261 | 8.11316 | 19068 ft | 391 kts | 290° |
| 2026-04-28 19:00 | 41.90294 | 8.07928 | 19598 ft | 394 kts | 290° |
| 2026-04-28 19:00 | 41.91334 | 8.04508 | 20132 ft | 397 kts | 290° |
| 2026-04-28 19:00 | 41.92376 | 8.01061 | 20673 ft | 399 kts | 290° |
| 2026-04-28 19:00 | 41.93422 | 7.97591 | 21201 ft | 402 kts | 290° |
| 2026-04-28 19:01 | 41.94462 | 7.94135 | 21692 ft | 405 kts | 289° |
| 2026-04-28 19:01 | 41.95518 | 7.90617 | 22186 ft | 408 kts | 289° |
| 2026-04-28 19:01 | 41.96587 | 7.87057 | 22682 ft | 411 kts | 289° |
| 2026-04-28 19:01 | 41.97663 | 7.83485 | 23166 ft | 414 kts | 289° |
| 2026-04-28 19:02 | 41.98747 | 7.79883 | 23639 ft | 417 kts | 289° |
| 2026-04-28 19:02 | 41.99837 | 7.76254 | 23938 ft | 419 kts | 289° |
| 2026-04-28 19:02 | 42.00928 | 7.72605 | 24018 ft | 425 kts | 289° |
| 2026-04-28 19:02 | 42.02039 | 7.68880 | 24028 ft | 432 kts | 289° |
| 2026-04-28 19:03 | 42.03163 | 7.65115 | 24029 ft | 434 kts | 289° |
| 2026-04-28 19:03 | 42.04294 | 7.61325 | 24030 ft | 435 kts | 289° |
| 2026-04-28 19:03 | 42.05404 | 7.57604 | 24039 ft | 435 kts | 289° |
| 2026-04-28 19:03 | 42.06528 | 7.53832 | 24031 ft | 434 kts | 289° |
| 2026-04-28 19:04 | 42.07650 | 7.50055 | 24028 ft | 434 kts | 289° |
| 2026-04-28 19:04 | 42.08773 | 7.46279 | 24030 ft | 434 kts | 289° |
| 2026-04-28 19:04 | 42.09893 | 7.42503 | 24027 ft | 434 kts | 289° |
| 2026-04-28 19:04 | 42.11009 | 7.38726 | 24031 ft | 434 kts | 289° |
| 2026-04-28 19:05 | 42.12124 | 7.34942 | 24029 ft | 434 kts | 289° |
| 2026-04-28 19:05 | 42.13238 | 7.31156 | 24024 ft | 434 kts | 289° |
| 2026-04-28 19:05 | 42.14351 | 7.27372 | 24021 ft | 434 kts | 289° |
| 2026-04-28 19:05 | 42.15461 | 7.23594 | 24027 ft | 434 kts | 289° |
| 2026-04-28 19:06 | 42.16571 | 7.19807 | 24023 ft | 434 kts | 289° |
| 2026-04-28 19:06 | 42.17304 | 7.17304 | 24023 ft | 434 kts | 289° |
| 2026-04-28 19:06 | 42.18790 | 7.12234 | 24037 ft | 434 kts | 289° |
| 2026-04-28 19:06 | 42.19898 | 7.08448 | 24027 ft | 434 kts | 289° |
| 2026-04-28 19:07 | 42.21001 | 7.04666 | 24025 ft | 433 kts | 289° |
| 2026-04-28 19:07 | 42.22105 | 7.00874 | 24031 ft | 433 kts | 289° |
| 2026-04-28 19:07 | 42.23203 | 6.97089 | 24021 ft | 433 kts | 289° |
| 2026-04-28 19:07 | 42.24299 | 6.93304 | 24022 ft | 433 kts | 289° |
| 2026-04-28 19:08 | 42.25384 | 6.89565 | 24020 ft | 433 kts | 289° |
| 2026-04-28 19:08 | 42.26481 | 6.85780 | 24019 ft | 433 kts | 289° |
| 2026-04-28 19:08 | 42.27581 | 6.81981 | 24028 ft | 433 kts | 289° |
| 2026-04-28 19:08 | 42.28673 | 6.78187 | 24028 ft | 433 kts | 289° |
| 2026-04-28 19:09 | 42.29761 | 6.74399 | 24029 ft | 433 kts | 289° |
| 2026-04-28 19:09 | 42.30484 | 6.71887 | 24029 ft | 433 kts | 289° |
| 2026-04-28 19:09 | 42.31576 | 6.68099 | 24027 ft | 433 kts | 289° |
| 2026-04-28 19:09 | 42.32663 | 6.64326 | 24026 ft | 432 kts | 289° |
| 2026-04-28 19:10 | 42.33757 | 6.60520 | 24027 ft | 432 kts | 289° |
| 2026-04-28 19:10 | 42.34843 | 6.56727 | 24025 ft | 432 kts | 289° |
| 2026-04-28 19:10 | 42.35927 | 6.52932 | 24025 ft | 432 kts | 289° |
| 2026-04-28 19:10 | 42.37004 | 6.49146 | 24025 ft | 432 kts | 289° |
| 2026-04-28 19:11 | 42.38084 | 6.45342 | 24032 ft | 432 kts | 289° |
| 2026-04-28 19:11 | 42.39163 | 6.41548 | 24031 ft | 432 kts | 289° |
| 2026-04-28 19:11 | 42.40243 | 6.37750 | 24030 ft | 432 kts | 289° |
| 2026-04-28 19:11 | 42.41309 | 6.33996 | 24028 ft | 432 kts | 289° |
| 2026-04-28 19:12 | 42.42386 | 6.30198 | 24026 ft | 432 kts | 289° |
| 2026-04-28 19:12 | 42.43464 | 6.26394 | 24025 ft | 432 kts | 289° |
| 2026-04-28 19:12 | 42.44536 | 6.22598 | 24026 ft | 432 kts | 289° |
| 2026-04-28 19:12 | 42.45605 | 6.18806 | 24026 ft | 432 kts | 288° |
| 2026-04-28 19:13 | 42.46676 | 6.15001 | 24024 ft | 431 kts | 288° |
| 2026-04-28 19:13 | 42.47745 | 6.11201 | 24024 ft | 431 kts | 288° |
| 2026-04-28 19:13 | 42.48817 | 6.07394 | 24029 ft | 431 kts | 288° |
| 2026-04-28 19:13 | 42.49885 | 6.03596 | 24028 ft | 431 kts | 288° |
| 2026-04-28 19:14 | 42.50951 | 5.99795 | 24025 ft | 431 kts | 288° |
| 2026-04-28 19:14 | 42.52012 | 5.95993 | 24026 ft | 431 kts | 288° |
| 2026-04-28 19:14 | 42.53058 | 5.92236 | 24025 ft | 431 kts | 288° |
| 2026-04-28 19:14 | 42.54115 | 5.88429 | 24023 ft | 431 kts | 288° |
| 2026-04-28 19:15 | 42.55174 | 5.84619 | 24024 ft | 431 kts | 288° |
| 2026-04-28 19:15 | 42.56230 | 5.80821 | 24023 ft | 431 kts | 288° |
| 2026-04-28 19:15 | 42.57286 | 5.77019 | 24019 ft | 431 kts | 288° |
| 2026-04-28 19:15 | 42.57999 | 5.74447 | 23939 ft | 432 kts | 288° |
| 2026-04-28 19:16 | 42.59389 | 5.69422 | 23184 ft | 427 kts | 288° |
| 2026-04-28 19:16 | 42.60426 | 5.65663 | 22475 ft | 422 kts | 288° |
| 2026-04-28 19:16 | 42.61450 | 5.61951 | 21820 ft | 417 kts | 288° |
| 2026-04-28 19:16 | 42.62460 | 5.58283 | 21191 ft | 412 kts | 288° |
| 2026-04-28 19:17 | 42.63459 | 5.54653 | 20574 ft | 408 kts | 288° |
| 2026-04-28 19:17 | 42.64445 | 5.51065 | 19982 ft | 403 kts | 288° |
| 2026-04-28 19:17 | 42.65418 | 5.47520 | 19422 ft | 398 kts | 288° |
| 2026-04-28 19:17 | 42.66364 | 5.44055 | 18877 ft | 394 kts | 288° |
| 2026-04-28 19:18 | 42.67310 | 5.40584 | 18364 ft | 390 kts | 288° |
| 2026-04-28 19:18 | 42.68261 | 5.37157 | 17802 ft | 385 kts | 291° |
| 2026-04-28 19:18 | 42.69524 | 5.33961 | 17302 ft | 382 kts | 302° |
| 2026-04-28 19:18 | 42.71191 | 5.31163 | 16819 ft | 384 kts | 313° |
| 2026-04-28 19:19 | 42.73270 | 5.28787 | 16402 ft | 394 kts | 323° |
| 2026-04-28 19:19 | 42.75623 | 5.26849 | 15962 ft | 396 kts | 328° |
| 2026-04-28 19:19 | 42.77997 | 5.24959 | 15520 ft | 394 kts | 328° |
| 2026-04-28 19:19 | 42.80351 | 5.23085 | 15081 ft | 392 kts | 328° |
| 2026-04-28 19:20 | 42.82705 | 5.21207 | 14648 ft | 390 kts | 328° |
| 2026-04-28 19:20 | 42.85036 | 5.19340 | 14217 ft | 387 kts | 328° |
| 2026-04-28 19:20 | 42.87355 | 5.17484 | 13779 ft | 385 kts | 328° |
| 2026-04-28 19:20 | 42.89632 | 5.15660 | 13329 ft | 383 kts | 328° |
| 2026-04-28 19:21 | 42.91953 | 5.13799 | 12897 ft | 381 kts | 328° |
| 2026-04-28 19:21 | 42.94291 | 5.12234 | 12482 ft | 379 kts | 338° |
| 2026-04-28 19:21 | 42.96824 | 5.11274 | 12037 ft | 378 kts | 349° |
| 2026-04-28 19:21 | 42.99422 | 5.10673 | 11582 ft | 377 kts | 350° |
| 2026-04-28 19:22 | 43.02001 | 5.10073 | 11139 ft | 374 kts | 349° |
| 2026-04-28 19:22 | 43.03688 | 5.09680 | 10916 ft | 367 kts | 349° |
| 2026-04-28 19:22 | 43.06958 | 5.08918 | 10749 ft | 345 kts | 349° |
| 2026-04-28 19:22 | 43.09280 | 5.08377 | 10624 ft | 332 kts | 349° |
| 2026-04-28 19:23 | 43.11513 | 5.07856 | 10501 ft | 319 kts | 350° |
| 2026-04-28 19:23 | 43.13657 | 5.07352 | 10381 ft | 308 kts | 349° |
| 2026-04-28 19:23 | 43.15744 | 5.06860 | 10173 ft | 301 kts | 349° |
| 2026-04-28 19:23 | 43.17796 | 5.06376 | 9872 ft | 297 kts | 349° |
| 2026-04-28 19:24 | 43.19802 | 5.05904 | 9645 ft | 297 kts | 350° |
| 2026-04-28 19:24 | 43.21831 | 5.05426 | 9317 ft | 296 kts | 350° |
| 2026-04-28 19:24 | 43.23851 | 5.04946 | 8963 ft | 295 kts | 350° |
| 2026-04-28 19:24 | 43.25869 | 5.04469 | 8615 ft | 293 kts | 350° |
| 2026-04-28 19:25 | 43.27878 | 5.03997 | 8270 ft | 291 kts | 351° |
| 2026-04-28 19:25 | 43.29870 | 5.03530 | 7928 ft | 290 kts | 351° |
| 2026-04-28 19:25 | 43.31859 | 5.03062 | 7585 ft | 289 kts | 351° |
| 2026-04-28 19:25 | 43.33837 | 5.02597 | 7244 ft | 288 kts | 351° |
| 2026-04-28 19:26 | 43.35783 | 5.02136 | 6916 ft | 286 kts | 351° |
| 2026-04-28 19:26 | 43.37768 | 5.01664 | 6564 ft | 284 kts | 351° |
| 2026-04-28 19:26 | 43.39709 | 5.01203 | 6217 ft | 283 kts | 351° |
| 2026-04-28 19:26 | 43.41624 | 5.00750 | 5882 ft | 282 kts | 351° |
| 2026-04-28 19:27 | 43.43549 | 5.00295 | 5530 ft | 280 kts | 352° |
| 2026-04-28 19:27 | 43.45465 | 4.99844 | 5235 ft | 276 kts | 352° |
| 2026-04-28 19:27 | 43.47305 | 4.99408 | 5142 ft | 262 kts | 352° |
| 2026-04-28 19:27 | 43.49064 | 4.98986 | 5027 ft | 249 kts | 352° |
| 2026-04-28 19:28 | 43.50736 | 4.98585 | 4907 ft | 238 kts | 352° |
| 2026-04-28 19:28 | 43.52338 | 4.98201 | 4800 ft | 229 kts | 352° |
| 2026-04-28 19:28 | 43.53880 | 4.97846 | 4683 ft | 220 kts | 357° |
| 2026-04-28 19:28 | 43.55300 | 4.98150 | 4607 ft | 198 kts | 30° |
| 2026-04-28 19:29 | 43.56285 | 4.99281 | 4515 ft | 172 kts | 58° |
| 2026-04-28 19:29 | 43.56634 | 5.00203 | 4427 ft | 157 kts | 75° |
| 2026-04-28 19:29 | 43.56719 | 5.02133 | 4001 ft | 149 kts | 107° |
| 2026-04-28 19:29 | 43.56320 | 5.03357 | 3995 ft | 137 kts | 126° |
| 2026-04-28 19:30 | 43.55693 | 5.04320 | 4022 ft | 134 kts | 134° |
| 2026-04-28 19:30 | 43.55048 | 5.05245 | 4015 ft | 133 kts | 134° |
| 2026-04-28 19:30 | 43.54406 | 5.06164 | 4008 ft | 133 kts | 134° |
| 2026-04-28 19:30 | 43.53764 | 5.07084 | 4017 ft | 133 kts | 134° |
| 2026-04-28 19:31 | 43.53115 | 5.08002 | 3878 ft | 134 kts | 134° |
| 2026-04-28 19:31 | 43.52449 | 5.08925 | 3472 ft | 139 kts | 135° |
| 2026-04-28 19:31 | 43.51751 | 5.09881 | 2970 ft | 145 kts | 135° |
| 2026-04-28 19:31 | 43.51045 | 5.10890 | 2425 ft | 150 kts | 134° |
| 2026-04-28 19:32 | 43.50329 | 5.11950 | 1884 ft | 151 kts | 134° |
| 2026-04-28 19:32 | 43.49606 | 5.12992 | 1403 ft | 150 kts | 134° |
| 2026-04-28 19:32 | 43.48904 | 5.13984 | 1112 ft | 138 kts | 134° |
| 2026-04-28 19:32 | 43.48257 | 5.14907 | 945 ft | 131 kts | 134° |
| 2026-04-28 19:33 | 43.47652 | 5.15827 | 802 ft | 130 kts | 133° |
| 2026-04-28 19:33 | 43.47031 | 5.16730 | 556 ft | 127 kts | 135° |
| 2026-04-28 19:33 | 43.46414 | 5.17586 | 484 ft | 126 kts | 136° |
| 2026-04-28 19:33 | 43.45791 | 5.18460 | 404 ft | 130 kts | 132° |
| 2026-04-28 19:34 | 43.45170 | 5.19373 | 142 ft | 130 kts | 134° |
| 2026-04-28 19:34 | 43.44540 | 5.20256 | 28 ft | 123 kts | 134° |
| 2026-04-28 19:34 | 43.44047 | 5.20963 | 29 ft | 78 kts | 131° |
| 2026-04-28 19:34 | 43.43708 | 5.21445 | 40 ft | 66 kts | 135° |
| 2026-04-28 19:35 | 43.43411 | 5.21874 | 47 ft | 52 kts | 133° |
| 2026-04-28 19:35 | 43.43340 | 5.22127 | 49 ft | 19 kts | 95° |
| 2026-04-28 19:35 | 43.43336 | 5.22204 | 47 ft | 0 kts | 79° |
| 2026-04-28 19:36 | 43.43337 | 5.22212 | 47 ft | 0 kts | 78° |
| 2026-04-28 19:36 | 43.43337 | 5.22213 | 47 ft | 0 kts | 78° |
| 2026-04-28 19:36 | 43.43353 | 5.22253 | 46 ft | 14 kts | 52° |
| 2026-04-28 19:36 | 43.43398 | 5.22278 | 46 ft | 5 kts | 351° |
| 2026-04-28 19:37 | 43.43470 | 5.22246 | 50 ft | 15 kts | 333° |
| 2026-04-28 19:37 | 43.43546 | 5.22188 | 49 ft | 16 kts | 327° |
| 2026-04-28 19:37 | 43.43638 | 5.22108 | 50 ft | 0 kts | 329° |
| 2026-04-28 19:37 | 43.43642 | 5.22105 | 50 ft | 6 kts | 329° |
| 2026-04-28 19:38 | 43.43675 | 5.22076 | 48 ft | 2 kts | 328° |
| 2026-04-28 19:38 | 43.43745 | 5.22022 | 47 ft | 9 kts | 328° |
| 2026-04-28 19:38 | 43.43803 | 5.21956 | 45 ft | 13 kts | 312° |
| 2026-04-28 19:38 | 43.43886 | 5.21860 | 44 ft | 22 kts | 348° |
| 2026-04-28 19:39 | 43.43908 | 5.21950 | 43 ft | 7 kts | 135° |
| 2026-04-28 19:39 | 43.43851 | 5.22027 | 45 ft | 15 kts | 136° |
| 2026-04-28 19:39 | 43.43791 | 5.22066 | 43 ft | 12 kts | 141° |
| 2026-04-28 19:39 | 43.43748 | 5.22134 | 48 ft | 12 kts | 140° |
| 2026-04-28 19:40 | 43.43711 | 5.22165 | 50 ft | 10 kts | 149° |
| 2026-04-28 19:40 | 43.43666 | 5.22200 | 52 ft | 5 kts | 150° |
| 2026-04-28 19:40 | 43.43645 | 5.22217 | 53 ft | 2 kts | 149° |
| 2026-04-28 19:40 | 43.43642 | 5.22219 | 54 ft | 0 kts | 149° |